Time;durP1;ratioP1;P1;durP2;ratioP2;P2;SDS_P1;SDS_P2;PMS_P1;PMS_P2;Temp;Humidity;BMP_temperature;BMP_pressure;BME280_temperature;BME280_humidity;BME280_pressure;Samples;Min_cycle;Max_cycle;Signal;HPM_P1;HPM_P2
2022/08/26 00:00:32;;;;;;;14.20;11.30;;;22.30;99.90;;;;;;5115461;28;20485;-73
2022/08/26 00:03:00;;;;;;;17.60;11.57;;;22.30;99.90;;;;;;5115381;28;20442;-72
2022/08/26 00:05:27;;;;;;;12.63;11.20;;;22.20;99.90;;;;;;5115726;28;20467;-74
2022/08/26 00:07:54;;;;;;;19.73;12.00;;;22.20;99.90;;;;;;5115712;28;20443;-74
2022/08/26 00:10:21;;;;;;;18.70;10.90;;;22.20;99.90;;;;;;5115518;28;20443;-73
2022/08/26 00:12:48;;;;;;;16.60;13.03;;;22.10;99.90;;;;;;5115677;28;20508;-72
2022/08/26 00:15:18;;;;;;;14.97;12.17;;;22.20;99.90;;;;;;5118516;28;20467;-74
2022/08/26 00:17:45;;;;;;;16.73;13.37;;;22.10;99.90;;;;;;5128572;28;20434;-74
2022/08/26 00:20:14;;;;;;;14.00;11.23;;;22.10;99.90;;;;;;5123003;28;20475;-74
2022/08/26 00:22:41;;;;;;;16.43;11.53;;;22.30;99.90;;;;;;5117954;28;20454;-73
2022/08/26 00:25:10;;;;;;;17.93;15.03;;;22.00;99.90;;;;;;5117048;28;20488;-73
2022/08/26 00:27:38;;;;;;;22.30;11.90;;;22.10;99.90;;;;;;5116438;28;20551;-73
2022/08/26 00:30:09;;;;;;;18.83;11.37;;;22.00;99.90;;;;;;5115979;28;20818;-73
2022/08/26 00:32:37;;;;;;;17.23;11.73;;;22.00;99.90;;;;;;5116347;28;20427;-73
2022/08/26 00:35:05;;;;;;;19.70;12.57;;;21.90;99.90;;;;;;5115252;28;20465;-72
2022/08/26 00:37:32;;;;;;;15.37;11.27;;;21.90;99.90;;;;;;5115560;28;20447;-72
2022/08/26 00:39:59;;;;;;;16.57;12.20;;;21.90;99.90;;;;;;5115186;28;20485;-73
2022/08/26 00:42:26;;;;;;;24.20;11.30;;;21.90;99.90;;;;;;5115363;28;20454;-72
2022/08/26 00:44:53;;;;;;;14.80;11.13;;;21.90;99.90;;;;;;5115295;28;20467;-72
2022/08/26 00:47:24;;;;;;;13.67;10.90;;;21.80;99.90;;;;;;5115464;28;20446;-72
2022/08/26 00:49:53;;;;;;;19.63;11.73;;;21.80;99.90;;;;;;5115330;28;20423;-73
2022/08/26 00:52:23;;;;;;;15.17;11.90;;;21.80;99.90;;;;;;5115117;28;20443;-74
2022/08/26 00:54:53;;;;;;;16.83;10.77;;;21.80;99.90;;;;;;5114651;28;20899;-72
2022/08/26 00:57:22;;;;;;;15.33;11.20;;;21.70;99.90;;;;;;5114698;28;20446;-73
2022/08/26 00:59:53;;;;;;;16.93;11.53;;;21.80;99.90;;;;;;5114171;28;20534;-73
2022/08/26 01:02:20;;;;;;;17.80;11.20;;;21.80;99.90;;;;;;5114822;28;20454;-74
2022/08/26 01:04:49;;;;;;;15.80;11.33;;;21.80;99.90;;;;;;5114842;28;20474;-73
2022/08/26 01:07:17;;;;;;;15.60;12.10;;;21.80;99.90;;;;;;5114869;28;20454;-74
2022/08/26 01:09:43;;;;;;;13.87;12.27;;;21.80;99.90;;;;;;5114259;28;20450;-73
2022/08/26 01:12:11;;;;;;;21.70;11.70;;;21.80;99.90;;;;;;5113905;28;20431;-74
2022/08/26 01:14:39;;;;;;;14.87;11.37;;;21.80;99.90;;;;;;5114473;28;20463;-73
2022/08/26 01:17:07;;;;;;;14.43;11.70;;;21.90;99.90;;;;;;5114225;28;20447;-74
2022/08/26 01:19:41;;;;;;;16.50;10.83;;;21.90;99.90;;;;;;5114019;28;20497;-73
2022/08/26 01:22:12;;;;;;;20.70;12.87;;;22.00;99.90;;;;;;5114107;28;20489;-73
2022/08/26 01:24:41;;;;;;;20.30;11.77;;;22.00;99.90;;;;;;5113898;28;20473;-75
2022/08/26 01:27:10;;;;;;;16.40;12.13;;;22.00;99.90;;;;;;5114235;28;20443;-73
2022/08/26 01:29:41;;;;;;;21.53;11.93;;;22.00;99.90;;;;;;5113787;28;20458;-73
2022/08/26 01:32:10;;;;;;;21.47;13.10;;;22.00;99.90;;;;;;5114239;28;20484;-73
2022/08/26 01:34:38;;;;;;;18.47;11.13;;;22.00;99.90;;;;;;5114108;28;20467;-73
2022/08/26 01:37:08;;;;;;;21.70;11.67;;;22.00;99.90;;;;;;5114225;28;20443;-73
2022/08/26 01:39:36;;;;;;;16.00;10.63;;;22.00;99.90;;;;;;5114090;28;20486;-73
2022/08/26 01:42:07;;;;;;;18.70;12.20;;;21.90;99.90;;;;;;5113836;28;20527;-73
2022/08/26 01:44:43;;;;;;;19.80;11.70;;;21.90;99.90;;;;;;5113725;28;20467;-74
2022/08/26 01:47:11;;;;;;;16.30;13.13;;;21.90;99.90;;;;;;5113762;28;20782;-72
2022/08/26 01:49:39;;;;;;;16.93;12.13;;;21.90;99.90;;;;;;5113693;28;20957;-73
2022/08/26 01:52:07;;;;;;;19.27;11.57;;;21.90;99.90;;;;;;5114427;28;20443;-73
2022/08/26 01:54:34;;;;;;;19.33;11.57;;;21.80;99.90;;;;;;5113295;28;20870;-73
2022/08/26 01:57:02;;;;;;;17.83;11.47;;;21.80;99.90;;;;;;5113917;28;20446;-72
2022/08/26 01:59:30;;;;;;;20.07;12.77;;;21.80;99.90;;;;;;5114177;28;20454;-74
2022/08/26 02:01:57;;;;;;;15.10;12.33;;;21.80;99.90;;;;;;5125689;28;20447;-73
2022/08/26 02:04:28;;;;;;;20.80;12.23;;;21.80;99.90;;;;;;5122619;28;20467;-73
2022/08/26 02:06:56;;;;;;;18.47;11.30;;;21.80;99.90;;;;;;5116175;28;20861;-72
2022/08/26 02:09:23;;;;;;;17.63;13.60;;;21.80;99.90;;;;;;5114694;28;20928;-72
2022/08/26 02:11:51;;;;;;;20.93;12.17;;;21.80;99.90;;;;;;5116058;28;20880;-73
2022/08/26 02:14:20;;;;;;;24.67;13.10;;;21.80;99.90;;;;;;5115107;28;20473;-73
2022/08/26 02:16:52;;;;;;;16.27;11.33;;;21.80;99.90;;;;;;5114232;28;20897;-73
2022/08/26 02:19:21;;;;;;;16.80;12.40;;;21.80;99.90;;;;;;5113711;28;20432;-74
2022/08/26 02:21:50;;;;;;;23.80;13.27;;;21.70;99.90;;;;;;5113110;28;20997;-74
2022/08/26 02:24:20;;;;;;;23.87;12.30;;;21.70;99.90;;;;;;5113680;28;20467;-74
2022/08/26 02:26:47;;;;;;;18.63;12.37;;;21.70;99.90;;;;;;5113537;28;20450;-74
2022/08/26 02:29:22;;;;;;;15.27;12.43;;;21.70;99.90;;;;;;5114103;28;20794;-73
2022/08/26 02:31:51;;;;;;;19.10;12.27;;;21.60;99.90;;;;;;5112946;28;20422;-73
2022/08/26 02:34:20;;;;;;;14.57;12.13;;;21.60;99.90;;;;;;5113222;28;20463;-73
2022/08/26 02:36:48;;;;;;;23.03;14.67;;;21.70;99.90;;;;;;5113714;28;20443;-74
2022/08/26 02:39:16;;;;;;;24.23;14.20;;;21.70;99.90;;;;;;5113406;28;20474;-74
2022/08/26 02:41:43;;;;;;;16.77;12.23;;;21.70;99.90;;;;;;5113592;28;20475;-73
2022/08/26 02:44:10;;;;;;;23.80;12.77;;;21.30;99.90;;;;;;5116036;28;20935;-73
2022/08/26 02:46:37;;;;;;;18.83;13.47;;;21.60;99.90;;;;;;5117570;28;20454;-73
2022/08/26 02:49:06;;;;;;;21.43;13.50;;;21.60;99.90;;;;;;5117700;28;20481;-74
2022/08/26 02:51:32;;;;;;;17.87;14.10;;;21.70;99.90;;;;;;5117312;28;20443;-73
2022/08/26 02:53:59;;;;;;;25.23;12.80;;;21.60;99.90;;;;;;5116590;28;20443;-72
2022/08/26 02:56:26;;;;;;;19.03;12.23;;;21.60;99.90;;;;;;5116855;28;20453;-73
2022/08/26 02:58:53;;;;;;;18.57;13.27;;;21.60;99.90;;;;;;5117534;28;20439;-74
2022/08/26 03:01:21;;;;;;;18.13;13.30;;;21.50;99.90;;;;;;5117106;28;20486;-73
2022/08/26 03:03:48;;;;;;;21.00;12.27;;;21.50;99.90;;;;;;5116953;28;20475;-73
2022/08/26 03:06:16;;;;;;;25.20;13.43;;;21.60;99.90;;;;;;5116689;28;20810;-73
2022/08/26 03:08:43;;;;;;;17.33;12.43;;;21.60;99.90;;;;;;5116719;28;20484;-73
2022/08/26 03:11:10;;;;;;;16.57;13.73;;;21.50;99.90;;;;;;5117110;28;20435;-74
2022/08/26 03:13:37;;;;;;;23.33;13.47;;;21.60;99.90;;;;;;5116497;27;20496;-73
2022/08/26 03:16:05;;;;;;;16.03;12.67;;;21.60;99.90;;;;;;5116594;28;20827;-73
2022/08/26 03:18:31;;;;;;;24.80;12.77;;;21.50;99.90;;;;;;5116736;28;20454;-73
2022/08/26 03:20:58;;;;;;;24.00;14.17;;;21.50;99.90;;;;;;5116548;28;20478;-73
2022/08/26 03:23:26;;;;;;;19.80;13.30;;;21.50;99.90;;;;;;5116655;28;20443;-73
2022/08/26 03:25:53;;;;;;;21.30;13.23;;;21.50;99.90;;;;;;5116869;28;20463;-73
2022/08/26 03:28:20;;;;;;;21.33;14.37;;;21.60;99.90;;;;;;5116445;28;20950;-73
2022/08/26 03:30:46;;;;;;;21.90;15.47;;;21.60;99.90;;;;;;5116544;28;20454;-73
2022/08/26 03:33:14;;;;;;;20.60;12.30;;;21.60;99.90;;;;;;5116586;28;20474;-73
2022/08/26 03:35:43;;;;;;;20.20;12.90;;;21.60;99.90;;;;;;5116120;28;20470;-72
2022/08/26 03:38:10;;;;;;;21.70;13.77;;;21.60;99.90;;;;;;5116141;28;20951;-73
2022/08/26 03:40:39;;;;;;;18.97;12.90;;;21.50;99.90;;;;;;5116124;27;21008;-73
2022/08/26 03:43:07;;;;;;;20.30;13.73;;;21.60;99.90;;;;;;5116116;27;20450;-73
2022/08/26 03:45:34;;;;;;;17.70;14.13;;;21.50;99.90;;;;;;5117313;28;20470;-73
2022/08/26 03:48:01;;;;;;;18.20;13.00;;;21.50;99.90;;;;;;5134793;28;20927;-73
2022/08/26 03:50:28;;;;;;;22.20;13.40;;;21.50;99.90;;;;;;5126695;28;20452;-73
2022/08/26 03:52:55;;;;;;;20.03;14.87;;;21.50;99.90;;;;;;5118281;28;20458;-73
2022/08/26 03:55:25;;;;;;;25.60;13.37;;;21.50;99.90;;;;;;5114717;28;20475;-73
2022/08/26 03:57:53;;;;;;;20.63;13.13;;;21.50;99.90;;;;;;5115663;27;20451;-73
2022/08/26 04:00:21;;;;;;;20.27;13.30;;;21.50;99.90;;;;;;5115717;28;20482;-73
2022/08/26 04:02:49;;;;;;;25.60;14.47;;;21.40;99.90;;;;;;5116353;28;20449;-73
2022/08/26 04:05:19;;;;;;;20.67;13.23;;;21.50;99.90;;;;;;5115587;28;20477;-73
2022/08/26 04:07:46;;;;;;;22.30;13.50;;;21.50;99.90;;;;;;5115484;28;20492;-72
2022/08/26 04:10:16;;;;;;;20.07;13.67;;;21.40;99.90;;;;;;5115599;28;20443;-73
2022/08/26 04:12:43;;;;;;;19.90;13.50;;;21.40;99.90;;;;;;5115709;28;20623;-74
2022/08/26 04:15:13;;;;;;;22.23;14.10;;;21.40;99.90;;;;;;5115571;28;20474;-72
2022/08/26 04:17:40;;;;;;;22.47;14.20;;;21.40;99.90;;;;;;5115352;28;20451;-74
2022/08/26 04:20:08;;;;;;;20.90;13.47;;;21.40;99.90;;;;;;5115681;28;20442;-75
2022/08/26 04:22:35;;;;;;;22.57;13.87;;;21.40;99.90;;;;;;5115276;28;20965;-74
2022/08/26 04:25:01;;;;;;;22.50;14.30;;;21.40;99.90;;;;;;5115480;28;20471;-73
2022/08/26 04:27:28;;;;;;;17.83;13.77;;;21.40;99.90;;;;;;5114898;28;20454;-73
2022/08/26 04:29:55;;;;;;;19.93;14.30;;;21.40;99.90;;;;;;5115160;28;20496;-72
2022/08/26 04:32:23;;;;;;;17.07;13.20;;;21.40;99.90;;;;;;5115378;28;20945;-73
2022/08/26 04:34:50;;;;;;;23.03;14.70;;;21.40;99.90;;;;;;5114718;28;20474;-74
2022/08/26 04:37:16;;;;;;;17.83;13.67;;;21.40;99.90;;;;;;5115054;28;20451;-73
2022/08/26 04:39:43;;;;;;;21.17;15.13;;;21.30;99.90;;;;;;5114989;27;20450;-74
2022/08/26 04:42:10;;;;;;;20.07;13.90;;;21.30;99.90;;;;;;5116393;28;20478;-73
2022/08/26 04:44:37;;;;;;;22.17;15.10;;;21.40;99.90;;;;;;5116615;28;21012;-73
2022/08/26 04:47:04;;;;;;;17.07;13.73;;;21.40;99.90;;;;;;5115594;28;20481;-73
2022/08/26 04:49:32;;;;;;;24.03;14.73;;;21.40;99.90;;;;;;5114990;28;20450;-74
2022/08/26 04:51:59;;;;;;;24.10;13.77;;;21.40;99.90;;;;;;5115033;28;20438;-73
2022/08/26 04:54:26;;;;;;;27.60;14.53;;;21.40;99.90;;;;;;5114183;28;20951;-73
2022/08/26 04:56:53;;;;;;;24.20;14.77;;;21.40;99.90;;;;;;5114663;28;20480;-73
2022/08/26 04:59:19;;;;;;;28.50;16.03;;;21.50;99.90;;;;;;5114557;28;20447;-73
2022/08/26 05:01:49;;;;;;;14.77;13.07;;;21.40;99.90;;;;;;5114694;28;20482;-73
2022/08/26 05:04:17;;;;;;;17.63;13.37;;;21.50;99.90;;;;;;5114638;28;20494;-74
2022/08/26 05:06:45;;;;;;;22.10;14.70;;;21.50;99.90;;;;;;5114677;27;20798;-73
2022/08/26 05:09:13;;;;;;;22.23;15.17;;;21.50;99.90;;;;;;5114492;28;20458;-73
2022/08/26 05:11:40;;;;;;;19.10;14.07;;;21.50;99.90;;;;;;5114300;28;20438;-73
2022/08/26 05:14:06;;;;;;;18.07;14.40;;;21.30;99.90;;;;;;5114235;27;20454;-73
2022/08/26 05:16:33;;;;;;;17.20;14.77;;;21.40;99.90;;;;;;5113713;28;20443;-73
2022/08/26 05:19:00;;;;;;;21.97;14.50;;;21.50;99.90;;;;;;5114216;27;20443;-73
2022/08/26 05:21:28;;;;;;;20.93;13.60;;;21.50;99.90;;;;;;5113728;28;20471;-73
2022/08/26 05:23:57;;;;;;;19.90;13.40;;;21.50;99.90;;;;;;5114301;28;20481;-73
2022/08/26 05:26:26;;;;;;;21.30;14.40;;;21.60;99.90;;;;;;5114404;28;20818;-73
2022/08/26 05:28:53;;;;;;;19.90;14.80;;;21.50;99.90;;;;;;5114086;28;20439;-73
2022/08/26 05:31:22;;;;;;;22.93;15.17;;;21.50;99.90;;;;;;5117524;28;20474;-73
2022/08/26 05:33:49;;;;;;;25.50;15.10;;;21.60;99.90;;;;;;5135160;28;20443;-73
2022/08/26 05:36:18;;;;;;;16.50;14.47;;;21.60;99.90;;;;;;5119794;28;20466;-73
2022/08/26 05:38:45;;;;;;;22.10;15.33;;;21.60;99.90;;;;;;5114966;28;20790;-73
2022/08/26 05:41:19;;;;;;;20.30;14.53;;;21.60;99.90;;;;;;5114287;28;20478;-73
2022/08/26 05:43:45;;;;;;;22.10;14.30;;;21.60;99.90;;;;;;5114301;28;20854;-73
2022/08/26 05:46:13;;;;;;;24.80;16.47;;;21.70;99.90;;;;;;5114536;28;20467;-73
2022/08/26 05:48:40;;;;;;;17.87;15.07;;;21.70;99.90;;;;;;5114138;28;20443;-73
2022/08/26 05:51:09;;;;;;;20.40;15.57;;;21.70;99.90;;;;;;5114039;28;20792;-73
2022/08/26 05:53:37;;;;;;;19.53;15.00;;;21.70;99.90;;;;;;5113849;28;20450;-73
2022/08/26 05:56:06;;;;;;;23.13;14.00;;;21.80;99.90;;;;;;5113725;28;20474;-73
2022/08/26 05:58:35;;;;;;;17.10;13.20;;;21.80;99.90;;;;;;5113834;28;20443;-73
2022/08/26 06:01:05;;;;;;;18.57;14.97;;;21.80;99.90;;;;;;5113864;28;20510;-73
2022/08/26 06:03:34;;;;;;;24.90;14.73;;;21.80;99.90;;;;;;5114060;28;20493;-73
2022/08/26 06:06:04;;;;;;;25.63;15.47;;;21.90;99.90;;;;;;5114504;28;20554;-73
2022/08/26 06:08:31;;;;;;;31.70;16.37;;;21.90;99.90;;;;;;5113880;28;20470;-73
2022/08/26 06:11:01;;;;;;;26.37;15.60;;;21.90;99.90;;;;;;5113534;28;20946;-73
2022/08/26 06:13:30;;;;;;;29.53;14.67;;;22.00;99.90;;;;;;5113996;28;20434;-73
2022/08/26 06:15:59;;;;;;;19.03;14.57;;;22.10;99.90;;;;;;5113374;28;20489;-73
2022/08/26 06:18:31;;;;;;;19.83;15.83;;;22.10;99.90;;;;;;5113750;28;20966;-73
2022/08/26 06:20:59;;;;;;;19.00;14.10;;;22.10;99.90;;;;;;5118767;28;20779;-73
2022/08/26 06:26:12;;;;;;;19.77;14.50;;;22.20;99.90;;;;;;5117663;28;20488;-73
2022/08/26 06:28:39;;;;;;;21.43;14.53;;;22.30;99.90;;;;;;5117688;28;20439;-73
2022/08/26 06:31:07;;;;;;;15.37;13.20;;;22.30;99.90;;;;;;5117798;28;20848;-73
2022/08/26 06:33:34;;;;;;;20.90;15.10;;;22.40;99.90;;;;;;5117784;28;20474;-73
2022/08/26 06:36:02;;;;;;;25.67;15.00;;;22.50;99.90;;;;;;5117655;27;20875;-73
2022/08/26 06:38:29;;;;;;;18.20;15.10;;;22.60;99.90;;;;;;5118019;28;20443;-73
2022/08/26 06:40:56;;;;;;;17.67;13.83;;;22.70;99.90;;;;;;5117740;28;20447;-73
2022/08/26 06:43:25;;;;;;;16.70;13.30;;;22.70;99.90;;;;;;5117810;28;20446;-73
2022/08/26 06:45:59;;;;;;;18.27;14.10;;;22.80;99.90;;;;;;5117614;28;20474;-73
2022/08/26 06:48:27;;;;;;;15.60;12.27;;;22.80;99.90;;;;;;5117764;28;20431;-73
2022/08/26 06:51:02;;;;;;;27.13;15.03;;;23.00;99.90;;;;;;5117362;28;20446;-74
2022/08/26 06:53:29;;;;;;;16.83;14.30;;;23.00;99.90;;;;;;5117580;28;20454;-73
2022/08/26 06:55:56;;;;;;;16.00;12.57;;;23.10;99.90;;;;;;5116990;28;20994;-73
2022/08/26 06:58:22;;;;;;;19.30;14.93;;;23.10;99.90;;;;;;5117299;28;20447;-74
2022/08/26 07:00:49;;;;;;;26.20;14.03;;;23.20;99.90;;;;;;5117130;28;20455;-73
2022/08/26 07:03:16;;;;;;;19.57;13.93;;;23.20;99.90;;;;;;5116932;28;20478;-72
2022/08/26 07:05:44;;;;;;;17.70;14.27;;;23.40;99.90;;;;;;5117163;27;20490;-72
2022/08/26 07:08:10;;;;;;;23.17;13.70;;;23.40;99.90;;;;;;5117196;28;20439;-73
2022/08/26 07:10:37;;;;;;;16.23;12.73;;;23.40;99.90;;;;;;5117561;28;20480;-73
2022/08/26 07:13:04;;;;;;;26.30;15.07;;;23.50;99.90;;;;;;5117576;27;20845;-72
2022/08/26 07:15:31;;;;;;;29.50;14.83;;;23.50;99.90;;;;;;5117387;28;20474;-73
2022/08/26 07:17:57;;;;;;;21.70;14.77;;;23.50;99.90;;;;;;5120246;28;20443;-72
2022/08/26 07:20:25;;;;;;;24.10;14.83;;;23.50;99.90;;;;;;5123019;28;20443;-72
2022/08/26 07:22:53;;;;;;;20.90;14.90;;;23.60;99.90;;;;;;5126790;27;21081;-73
2022/08/26 07:25:20;;;;;;;17.33;13.07;;;23.70;99.90;;;;;;5125051;28;20463;-73
2022/08/26 07:27:47;;;;;;;23.40;15.13;;;23.70;99.90;;;;;;5117668;28;20810;-73
2022/08/26 07:30:14;;;;;;;21.63;14.00;;;23.80;99.90;;;;;;5116931;28;20496;-74
2022/08/26 07:32:41;;;;;;;23.50;14.10;;;23.80;99.90;;;;;;5117232;28;20443;-74
2022/08/26 07:35:08;;;;;;;24.37;13.87;;;23.90;99.90;;;;;;5119072;28;20459;-74
2022/08/26 07:37:34;;;;;;;18.03;13.50;;;24.00;99.90;;;;;;5117951;28;20458;-74
2022/08/26 07:40:04;;;;;;;16.33;13.17;;;24.10;99.90;;;;;;5117044;28;20567;-72
2022/08/26 07:42:31;;;;;;;26.80;14.93;;;24.10;99.90;;;;;;5116505;28;20482;-74
2022/08/26 07:44:57;;;;;;;21.37;13.83;;;24.10;99.90;;;;;;5116719;28;20467;-72
2022/08/26 07:47:24;;;;;;;17.00;11.67;;;24.20;99.90;;;;;;5115829;28;21005;-74
2022/08/26 07:49:51;;;;;;;19.63;13.50;;;24.30;99.90;;;;;;5115938;28;20918;-73
2022/08/26 07:52:18;;;;;;;22.03;12.37;;;24.30;99.90;;;;;;5116472;28;20445;-73
2022/08/26 07:54:44;;;;;;;20.10;14.10;;;24.30;99.90;;;;;;5115727;28;20490;-72
2022/08/26 07:57:12;;;;;;;20.30;13.43;;;24.40;99.90;;;;;;5116318;28;20443;-72
2022/08/26 07:59:39;;;;;;;25.63;13.87;;;24.50;99.90;;;;;;5116053;28;20470;-73
2022/08/26 08:02:06;;;;;;;17.70;13.40;;;24.60;99.90;;;;;;5115998;28;20849;-73
2022/08/26 08:04:33;;;;;;;17.70;13.10;;;24.60;99.90;;;;;;5115456;28;20463;-73
2022/08/26 08:07:00;;;;;;;24.57;12.93;;;24.60;99.90;;;;;;5115587;28;20443;-73
2022/08/26 08:09:27;;;;;;;20.50;12.37;;;24.80;99.90;;;;;;5115555;28;20878;-72
2022/08/26 08:11:54;;;;;;;20.63;12.73;;;24.80;99.90;;;;;;5115441;28;20442;-73
2022/08/26 08:14:22;;;;;;;21.90;12.10;;;24.90;99.90;;;;;;5115301;28;20462;-74
2022/08/26 08:16:49;;;;;;;15.83;12.20;;;25.00;99.90;;;;;;5115536;28;20446;-74
2022/08/26 08:19:16;;;;;;;22.67;12.17;;;25.10;99.90;;;;;;5115165;28;20490;-74
2022/08/26 08:21:43;;;;;;;17.63;12.30;;;25.20;99.90;;;;;;5116166;28;20565;-73
2022/08/26 08:24:11;;;;;;;23.93;12.70;;;25.60;99.90;;;;;;5116257;28;20447;-73
2022/08/26 08:26:38;;;;;;;22.50;13.00;;;25.40;99.90;;;;;;5115463;28;20447;-73
2022/08/26 08:29:06;;;;;;;23.03;12.67;;;25.50;99.90;;;;;;5114987;28;20428;-73
2022/08/26 08:31:35;;;;;;;21.63;11.70;;;25.50;94.40;;;;;;5115266;28;20447;-73
2022/08/26 08:34:02;;;;;;;15.63;9.80;;;25.60;99.90;;;;;;5115141;28;20454;-73
2022/08/26 08:36:29;;;;;;;26.17;12.10;;;25.70;99.90;;;;;;5115720;27;20443;-73
2022/08/26 08:38:55;;;;;;;19.57;10.87;;;25.70;1.00;;;;;;5115402;28;20793;-73
2022/08/26 08:41:45;;;;;;;18.40;11.03;;;25.70;58.90;;;;;;5114591;28;20766;-73
2022/08/26 08:44:17;;;;;;;30.30;11.73;;;25.60;94.30;;;;;;5115426;28;20439;-73
2022/08/26 08:46:46;;;;;;;20.83;11.70;;;25.70;55.40;;;;;;5115402;28;20427;-73
2022/08/26 08:49:14;;;;;;;26.93;11.50;;;25.80;65.00;;;;;;5115034;28;20492;-74
2022/08/26 08:51:48;;;;;;;21.40;10.67;;;25.90;1.00;;;;;;5115831;27;20453;-72
2022/08/26 08:54:14;;;;;;;18.33;11.60;;;26.40;1.00;;;;;;5114999;28;20441;-72
2022/08/26 08:56:46;;;;;;;24.07;13.10;;;26.00;5.20;;;;;;5115112;28;20465;-72
2022/08/26 08:59:16;;;;;;;19.60;11.63;;;26.10;64.70;;;;;;5114997;28;20974;-73
2022/08/26 09:01:59;;;;;;;17.20;10.93;;;26.20;1.00;;;;;;5115558;28;20907;-74
2022/08/26 09:04:46;;;;;;;22.93;12.80;;;26.20;7.40;;;;;;5122699;28;20467;-73
2022/08/26 09:07:18;;;;;;;21.00;11.40;;;26.30;9.10;;;;;;5123682;28;20419;-77
2022/08/26 09:09:50;;;;;;;16.73;10.73;;;26.30;60.80;;;;;;5115632;28;20431;-73
2022/08/26 09:12:23;;;;;;;18.90;12.17;;;26.30;79.20;;;;;;5115581;28;20438;-73
2022/08/26 09:14:51;;;;;;;13.13;10.90;;;26.30;99.20;;;;;;5114726;28;20467;-73
2022/08/26 09:17:33;;;;;;;17.90;11.00;;;26.30;99.90;;;;;;5114361;28;20439;-73
2022/08/26 09:20:09;;;;;;;24.20;11.47;;;26.30;30.70;;;;;;5114397;28;20427;-73
2022/08/26 09:22:38;;;;;;;16.90;10.70;;;26.30;1.00;;;;;;5114697;28;20467;-72
2022/08/26 09:25:08;;;;;;;16.47;11.90;;;26.30;1.00;;;;;;5114309;28;20556;-73
2022/08/26 09:27:44;;;;;;;23.53;11.70;;;26.30;1.00;;;;;;5114367;28;20443;-73
2022/08/26 09:30:14;;;;;;;14.80;11.00;;;26.30;1.00;;;;;;5114396;28;20446;-73
2022/08/26 09:32:43;;;;;;;22.27;11.30;;;26.40;1.00;;;;;;5113637;27;20443;-76
2022/08/26 09:35:24;;;;;;;20.67;9.73;;;26.50;1.00;;;;;;5113906;28;20493;-74
2022/08/26 09:37:51;;;;;;;15.53;9.90;;;26.60;99.90;;;;;;5114445;28;20839;-73
2022/08/26 09:40:26;;;;;;;17.10;11.37;;;26.70;1.00;;;;;;5113745;28;20779;-74
2022/08/26 09:43:07;;;;;;;19.60;11.27;;;26.80;99.90;;;;;;5114050;28;20519;-73
2022/08/26 09:45:35;;;;;;;23.73;10.03;;;26.90;99.90;;;;;;5114177;28;20474;-73
2022/08/26 09:48:03;;;;;;;20.30;9.23;;;27.00;99.90;;;;;;5114577;28;20480;-73
2022/08/26 09:50:32;;;;;;;20.50;10.20;;;27.00;1.00;;;;;;5114893;28;20454;-73
2022/08/26 09:53:09;;;;;;;16.37;10.43;;;27.20;99.90;;;;;;5114021;28;20446;-73
2022/08/26 09:55:37;;;;;;;20.50;10.70;;;27.20;14.80;;;;;;5115103;22;20480;-76
2022/08/26 09:58:04;;;;;;;16.53;10.70;;;27.20;99.90;;;;;;5073337;28;20445;-76
2022/08/26 10:00:34;;;;;;;29.87;9.23;;;27.30;99.90;;;;;;5073511;28;20444;-76
2022/08/26 10:03:04;;;;;;;19.30;9.50;;;27.30;99.90;;;;;;5073333;28;20522;-75
2022/08/26 10:05:42;;;;;;;17.90;9.80;;;27.30;1.00;;;;;;5063140;28;20922;-75
2022/08/26 10:08:23;;;;;;;25.47;9.60;;;27.30;1.00;;;;;;5053709;28;20430;-75
2022/08/26 10:10:50;;;;;;;17.00;8.97;;;27.20;99.90;;;;;;5053031;28;20430;-76
2022/08/26 10:13:23;;;;;;;20.93;10.80;;;27.20;1.00;;;;;;5052958;28;20942;-76
2022/08/26 10:15:58;;;;;;;13.40;9.97;;;27.30;99.90;;;;;;5053323;28;20483;-76
2022/08/26 10:18:30;;;;;;;17.40;10.47;;;27.40;1.00;;;;;;5053047;28;20437;-75
2022/08/26 10:21:06;;;;;;;14.37;10.20;;;27.50;99.90;;;;;;5053668;28;20795;-76
2022/08/26 10:23:38;;;;;;;24.00;10.57;;;27.50;1.00;;;;;;5052726;28;20469;-75
2022/08/26 10:26:11;;;;;;;20.63;10.10;;;27.60;1.00;;;;;;5052586;28;20462;-76
2022/08/26 10:28:43;;;;;;;12.53;8.07;;;27.60;99.90;;;;;;5052764;28;20434;-76
2022/08/26 10:31:22;;;;;;;22.13;10.10;;;27.60;99.90;;;;;;5052843;28;20433;-75
2022/08/26 10:33:50;;;;;;;26.80;10.50;;;27.60;99.90;;;;;;5053357;28;20426;-75
2022/08/26 10:39:22;;;;;;;15.77;8.77;;;27.50;25.70;;;;;;5052966;28;20410;-74
2022/08/26 10:41:51;;;;;;;18.40;10.60;;;27.60;99.90;;;;;;5052941;28;20442;-76
2022/08/26 10:44:19;;;;;;;14.63;9.23;;;27.50;99.90;;;;;;5053233;28;20477;-75
2022/08/26 10:46:50;;;;;;;20.20;8.97;;;27.60;1.00;;;;;;5054330;28;20488;-76
2022/08/26 10:49:18;;;;;;;11.47;10.20;;;27.60;99.90;;;;;;5053869;28;20437;-75
2022/08/26 10:51:55;;;;;;;22.47;10.60;;;27.70;99.90;;;;;;5054117;28;20449;-75
2022/08/26 10:54:28;;;;;;;18.63;9.80;;;27.70;99.90;;;;;;5052995;28;20426;-75
2022/08/26 10:57:02;;;;;;;20.33;10.93;;;27.80;99.90;;;;;;5052191;28;20922;-75
2022/08/26 10:59:42;;;;;;;20.20;10.50;;;27.80;99.90;;;;;;5052456;28;20907;-75
2022/08/26 11:02:15;;;;;;;17.93;11.50;;;27.80;1.00;;;;;;5052382;28;20432;-76
2022/08/26 11:04:52;;;;;;;27.50;15.00;;;27.90;1.00;;;;;;5053387;28;20477;-76
2022/08/26 11:07:35;;;;;;;27.67;11.97;;;27.80;49.20;;;;;;5056286;28;20429;-76
2022/08/26 11:10:05;;;;;;;20.03;12.80;;;27.70;99.90;;;;;;5056316;28;20513;-75
2022/08/26 11:12:54;;;;;;;30.00;16.50;;;27.50;1.00;;;;;;5055828;28;20442;-75
2022/08/26 11:16:09;;;;;;;22.87;15.27;;;27.40;99.90;;;;;;5056105;28;20508;-76
2022/08/26 11:18:47;;;;;;;20.60;12.90;;;27.30;1.00;;;;;;5056279;28;20430;-74
2022/08/26 11:22:00;;;;;;;19.93;13.90;;;27.20;6.80;;;;;;5056135;28;20517;-75
2022/08/26 11:25:01;;;;;;;29.37;13.70;;;27.20;6.00;;;;;;5055794;28;20875;-75
2022/08/26 11:27:56;;;;;;;24.10;15.10;;;27.20;1.00;;;;;;5056008;28;20449;-75
2022/08/26 11:30:46;;;;;;;23.43;13.93;;;27.20;99.90;;;;;;5048370;28;20870;-75
2022/08/26 11:33:45;;;;;;;36.60;24.53;;;27.20;99.90;;;;;;5055989;28;20429;-76
2022/08/26 11:36:39;;;;;;;27.97;23.90;;;27.20;99.90;;;;;;5055688;28;20477;-76
2022/08/26 11:39:18;;;;;;;23.67;16.43;;;27.10;99.90;;;;;;5056014;28;20497;-75
2022/08/26 11:41:47;;;;;;;25.87;18.80;;;27.10;99.90;;;;;;5056688;28;20454;-75
2022/08/26 11:44:18;;;;;;;34.90;26.97;;;27.00;99.90;;;;;;5057766;28;20576;-73
2022/08/26 11:46:53;;;;;;;24.90;18.83;;;27.00;99.90;;;;;;5058662;28;20437;-75
2022/08/26 11:49:20;;;;;;;23.17;13.63;;;26.90;99.90;;;;;;5058805;28;20545;-74
2022/08/26 11:51:46;;;;;;;22.90;14.67;;;26.90;99.90;;;;;;5058802;28;20446;-74
2022/08/26 11:54:17;;;;;;;20.17;12.80;;;26.70;1.00;;;;;;5062529;28;20449;-75
2022/08/26 11:56:46;;;;;;;20.53;13.57;;;26.50;1.00;;;;;;5063211;28;20480;-73
2022/08/26 11:59:20;;;;;;;29.13;14.80;;;26.20;1.00;;;;;;5061312;28;20836;-75
2022/08/26 12:01:52;;;;;;;28.20;16.13;;;25.60;99.90;;;;;;5055525;28;20434;-75
2022/08/26 12:04:27;;;;;;;23.43;19.17;;;25.20;99.90;;;;;;5055191;28;20556;-76
2022/08/26 12:06:54;;;;;;;30.63;18.87;;;24.80;99.90;;;;;;5055177;28;20437;-76
2022/08/26 12:09:25;;;;;;;28.47;18.00;;;24.60;99.90;;;;;;5055383;28;20825;-76
2022/08/26 12:11:52;;;;;;;23.60;17.23;;;24.40;99.90;;;;;;5055466;28;20810;-75
2022/08/26 12:14:23;;;;;;;17.27;15.63;;;24.50;99.90;;;;;;5054946;28;20446;-75
2022/08/26 12:16:50;;;;;;;13.73;7.53;;;24.20;99.90;;;;;;5053944;28;20439;-76
2022/08/26 12:19:25;;;;;;;14.63;7.00;;;23.80;99.90;;;;;;5054907;28;20449;-76
2022/08/26 12:21:55;;;;;;;11.80;7.77;;;23.40;99.90;;;;;;5054718;28;20449;-76
2022/08/26 12:24:24;;;;;;;10.80;7.90;;;22.90;99.90;;;;;;5054432;28;20565;-76
2022/08/26 12:27:02;;;;;;;14.77;8.07;;;22.40;99.90;;;;;;5054914;28;20480;-76
2022/08/26 12:29:29;;;;;;;11.63;8.50;;;22.20;99.90;;;;;;5054232;28;20440;-76
2022/08/26 12:32:08;;;;;;;13.40;7.73;;;22.00;99.90;;;;;;5054760;28;20438;-77
2022/08/26 12:34:36;;;;;;;10.37;7.97;;;21.60;99.90;;;;;;5054652;28;20493;-76
2022/08/26 12:37:03;;;;;;;11.83;9.43;;;21.70;99.90;;;;;;5055466;28;20442;-78
2022/08/26 12:39:35;;;;;;;10.23;8.97;;;21.70;99.90;;;;;;5054392;28;20453;-75
2022/08/26 12:42:03;;;;;;;10.60;8.80;;;21.70;99.90;;;;;;5053885;28;20926;-75
2022/08/26 12:44:46;;;;;;;10.27;9.27;;;21.80;99.90;;;;;;5053997;28;20850;-74
2022/08/26 12:47:22;;;;;;;13.10;9.90;;;21.50;99.90;;;;;;5052321;28;20452;-75